Time;durP1;ratioP1;P1;durP2;ratioP2;P2;SDS_P1;SDS_P2;PMS_P1;PMS_P2;Temp;Humidity;BMP_temperature;BMP_pressure;BME280_temperature;BME280_humidity;BME280_pressure;Samples;Min_cycle;Max_cycle;Signal;HPM_P1;HPM_P2
2022/10/15 07:59:08;;;;;;;;;;;;;;;17.92;81.41;96763.53;4229242;27;10426;-76
2022/10/15 08:01:11;;;;;;;;;;;;;;;18.20;80.47;96782.19;4214241;28;5702;-76
2022/10/15 08:03:14;;;;;;;;;;;;;;;18.42;80.15;96778.81;4214533;28;5674;-75
2022/10/15 08:05:16;;;;;;;;;;;;;;;18.60;79.23;96782.06;4214415;28;5078;-76
2022/10/15 08:07:19;;;;;;;;;;;;;;;18.73;78.92;96777.47;4214460;28;5729;-76
2022/10/15 08:09:22;;;;;;;;;;;;;;;18.81;78.34;96780.53;4214326;28;5698;-76
2022/10/15 08:11:25;;;;;;;;;;;;;;;18.89;78.09;96781.97;4214181;28;5859;-76
2022/10/15 08:13:29;;;;;;;;;;;;;;;18.95;77.92;96789.03;4214231;28;5705;-77
2022/10/15 08:15:33;;;;;;;;;;;;;;;19.04;77.65;96792.91;4214185;28;5789;-76
2022/10/15 08:17:36;;;;;;;;;;;;;;;19.11;77.27;96796.22;4210632;28;5700;-76
2022/10/15 08:19:39;;;;;;;;;;;;;;;19.17;77.21;96802.47;4213855;28;5673;-76
2022/10/15 08:21:41;;;;;;;;;;;;;;;19.22;76.71;96807.88;4214289;28;5733;-76
2022/10/15 08:23:49;;;;;;;;;;;;;;;19.27;76.51;96805.28;4219010;28;5767;-76
2022/10/15 08:25:51;;;;;;;;;;;;;;;19.34;76.50;96802.41;4214074;28;5754;-76
2022/10/15 08:27:55;;;;;;;;;;;;;;;19.36;76.25;96794.94;4213928;28;5702;-76
2022/10/15 08:29:58;;;;;;;;;;;;;;;19.39;75.80;96797.13;4213732;28;5710;-76
2022/10/15 08:32:02;;;;;;;;;;;;;;;19.41;75.93;96803.88;4214077;28;5693;-76
2022/10/15 08:34:05;;;;;;;;;;;;;;;19.44;75.57;96797.19;4207420;28;5714;-75
2022/10/15 08:36:08;;;;;;;;;;;;;;;19.46;75.66;96803.09;4213172;28;5694;-76
2022/10/15 08:38:11;;;;;;;;;;;;;;;19.48;75.50;96801.81;4213626;28;5705;-76
2022/10/15 08:40:21;;;;;;;;;;;;;;;19.48;74.91;96814.41;4213708;28;5691;-77
2022/10/15 08:42:31;;;;;;;;;;;;;;;19.47;74.75;96812.75;4211483;28;5884;-76
2022/10/15 08:44:41;;;;;;;;;;;;;;;19.47;74.73;96813.56;4209628;28;5694;-77
2022/10/15 08:46:49;;;;;;;;;;;;;;;19.50;74.43;96812.28;4213945;28;5852;-77
2022/10/15 08:48:55;;;;;;;;;;;;;;;19.52;74.25;96804.81;4205986;28;6479;-76
2022/10/15 08:51:03;;;;;;;;;;;;;;;19.54;74.27;96813.41;4213941;28;5706;-77
2022/10/15 08:53:10;;;;;;;;;;;;;;;19.55;74.00;96814.22;4198072;28;5809;-77
2022/10/15 08:55:17;;;;;;;;;;;;;;;19.55;73.39;96812.38;4206540;28;5685;-77
2022/10/15 08:57:35;;;;;;;;;;;;;;;19.54;73.44;96816.09;4213334;28;5696;-77
2022/10/15 08:59:44;;;;;;;;;;;;;;;19.56;73.34;96816.66;4204758;28;5836;-77
2022/10/15 09:01:53;;;;;;;;;;;;;;;19.61;73.21;96824.78;4199657;28;5781;-78
2022/10/15 09:04:07;;;;;;;;;;;;;;;19.63;73.00;96838.75;4200143;28;5159;-78
2022/10/15 09:06:15;;;;;;;;;;;;;;;19.65;72.71;96838.50;4200500;28;5694;-76
2022/10/15 09:08:25;;;;;;;;;;;;;;;19.63;72.63;96833.41;4196102;28;5974;-76
2022/10/15 09:10:36;;;;;;;;;;;;;;;19.65;72.47;96846.56;4202251;28;7723;-76
2022/10/15 09:12:48;;;;;;;;;;;;;;;19.65;72.11;96831.28;4201651;28;5785;-77
2022/10/15 09:14:51;;;;;;;;;;;;;;;19.71;72.33;96840.19;4200613;28;5086;-77
2022/10/15 09:17:04;;;;;;;;;;;;;;;19.72;72.00;96839.94;4200933;28;5883;-76
2022/10/15 09:19:16;;;;;;;;;;;;;;;19.71;71.79;96835.66;4201043;28;5653;-77
2022/10/15 09:21:20;;;;;;;;;;;;;;;19.74;71.49;96832.47;4200823;28;5689;-76
2022/10/15 09:23:28;;;;;;;;;;;;;;;19.74;71.47;96828.97;4201730;28;5098;-77
2022/10/15 09:25:35;;;;;;;;;;;;;;;19.80;71.30;96821.78;4201890;28;5700;-76
2022/10/15 09:27:38;;;;;;;;;;;;;;;19.82;71.16;96823.16;4192398;28;5668;-73
2022/10/15 09:29:46;;;;;;;;;;;;;;;19.83;70.93;96826.66;4194537;28;6514;-76
2022/10/15 09:31:55;;;;;;;;;;;;;;;19.84;70.65;96830.97;4185834;28;5898;-73
2022/10/15 09:34:07;;;;;;;;;;;;;;;19.88;70.69;96830.19;4198984;28;5079;-74
2022/10/15 09:36:21;;;;;;;;;;;;;;;19.94;70.28;96833.75;4196724;28;5793;-73
2022/10/15 09:38:33;;;;;;;;;;;;;;;19.98;70.63;96832.19;4196668;28;5864;-75
2022/10/15 09:40:52;;;;;;;;;;;;;;;19.99;70.26;96842.66;4193309;28;5677;-72
2022/10/15 09:42:57;;;;;;;;;;;;;;;20.00;70.00;96846.97;4198400;28;5780;-72
2022/10/15 09:45:04;;;;;;;;;;;;;;;20.00;69.95;96833.56;4195928;28;6795;-72
2022/10/15 09:47:16;;;;;;;;;;;;;;;20.01;69.93;96837.03;4187814;28;5694;-75
2022/10/15 09:49:24;;;;;;;;;;;;;;;20.00;69.65;96828.19;4193673;28;5784;-72
2022/10/15 09:51:32;;;;;;;;;;;;;;;20.02;69.67;96827.94;4191726;28;5776;-75
2022/10/15 09:53:47;;;;;;;;;;;;;;;20.03;69.32;96832.22;4195925;28;5709;-75
2022/10/15 09:55:54;;;;;;;;;;;;;;;20.03;69.13;96827.66;4200273;28;5784;-74
2022/10/15 09:58:02;;;;;;;;;;;;;;;20.03;68.92;96833.03;4194296;28;5803;-73
2022/10/15 10:00:10;;;;;;;;;;;;;;;20.03;68.97;96826.88;4193124;28;5845;-75
2022/10/15 10:02:19;;;;;;;;;;;;;;;20.02;69.08;96822.56;4200422;28;5686;-73
2022/10/15 10:04:25;;;;;;;;;;;;;;;20.02;68.67;96826.06;4196876;28;5781;-74
2022/10/15 10:06:29;;;;;;;;;;;;;;;20.05;69.01;96832.81;4195457;28;5862;-72
2022/10/15 10:08:38;;;;;;;;;;;;;;;20.10;68.45;96832.84;4198629;28;5793;-72
2022/10/15 10:10:42;;;;;;;;;;;;;;;20.12;68.65;96833.41;4193602;28;5726;-71
2022/10/15 10:12:48;;;;;;;;;;;;;;;20.14;68.08;96827.78;4198996;28;5678;-71
2022/10/15 10:14:56;;;;;;;;;;;;;;;20.13;68.11;96832.34;4195391;28;5861;-73
2022/10/15 10:17:08;;;;;;;;;;;;;;;20.12;68.11;96833.41;4190670;28;6126;-71
2022/10/15 10:19:13;;;;;;;;;;;;;;;20.13;68.31;96826.97;4187908;28;7714;-70
2022/10/15 10:21:25;;;;;;;;;;;;;;;20.13;67.99;96820.78;4197033;28;5897;-72
2022/10/15 10:23:35;;;;;;;;;;;;;;;20.11;67.68;96810.31;4191919;28;6657;-73
2022/10/15 10:25:41;;;;;;;;;;;;;;;20.13;67.71;96810.06;4188621;28;5815;-73
2022/10/15 10:27:45;;;;;;;;;;;;;;;20.14;67.95;96807.13;4194749;28;6529;-74
2022/10/15 10:29:56;;;;;;;;;;;;;;;20.15;67.43;96814.09;4192456;28;5943;-69
2022/10/15 10:32:00;;;;;;;;;;;;;;;20.17;67.43;96809.31;4186000;28;6460;-69
2022/10/15 10:34:03;;;;;;;;;;;;;;;20.20;67.63;96813.38;4194108;28;5806;-69
2022/10/15 10:36:08;;;;;;;;;;;;;;;20.20;67.13;96805.31;4190017;28;5710;-69
2022/10/15 10:38:21;;;;;;;;;;;;;;;20.21;67.44;96807.72;4196187;28;6490;-69
2022/10/15 10:40:28;;;;;;;;;;;;;;;20.23;67.37;96804.78;4198664;28;5723;-68
2022/10/15 10:42:34;;;;;;;;;;;;;;;20.25;67.03;96806.16;4194640;28;5760;-69
2022/10/15 10:44:38;;;;;;;;;;;;;;;20.27;67.13;96806.72;4193978;28;5200;-69
2022/10/15 10:46:41;;;;;;;;;;;;;;;20.31;66.97;96812.41;4197925;28;5757;-69
2022/10/15 10:48:46;;;;;;;;;;;;;;;20.34;66.94;96819.94;4190092;28;5706;-69
2022/10/15 10:51:02;;;;;;;;;;;;;;;20.34;66.37;96804.63;4196344;28;5704;-71
2022/10/15 10:53:20;;;;;;;;;;;;;;;20.36;66.32;96809.75;4185616;28;5932;-69
2022/10/15 10:55:33;;;;;;;;;;;;;;;20.36;66.73;96805.19;4190391;28;5944;-69
2022/10/15 10:57:43;;;;;;;;;;;;;;;20.39;66.11;96803.06;4188277;28;5227;-68
2022/10/15 10:59:51;;;;;;;;;;;;;;;20.41;66.53;96796.38;4186228;28;5919;-70
2022/10/15 11:01:56;;;;;;;;;;;;;;;20.45;66.26;96796.69;4191079;28;5839;-70
2022/10/15 11:03:58;;;;;;;;;;;;;;;20.47;66.15;96797.25;4189968;28;5794;-72
2022/10/15 11:06:19;;;;;;;;;;;;;;;20.45;65.85;96807.44;4186591;28;5897;-72
2022/10/15 11:08:29;;;;;;;;;;;;;;;20.41;65.85;96809.81;4192644;28;5698;-71
2022/10/15 11:10:42;;;;;;;;;;;;;;;20.37;66.17;96795.25;4193894;28;5769;-69
2022/10/15 11:13:09;;;;;;;;;;;;;;;20.39;65.98;96801.19;4185103;28;5815;-70
2022/10/15 11:15:31;;;;;;;;;;;;;;;20.38;65.99;96790.69;4187984;28;5705;-69
2022/10/15 11:17:47;;;;;;;;;;;;;;;20.38;66.00;96785.31;4190154;28;5814;-71
2022/10/15 11:19:57;;;;;;;;;;;;;;;20.39;65.47;96785.09;4191846;28;5781;-70
2022/10/15 11:22:34;;;;;;;;;;;;;;;20.41;65.67;96782.16;4195022;28;5785;-70
2022/10/15 11:24:46;;;;;;;;;;;;;;;20.41;65.38;96779.47;4190307;28;5730;-70
2022/10/15 11:27:13;;;;;;;;;;;;;;;20.41;65.25;96777.59;4194295;28;5859;-71
2022/10/15 11:29:27;;;;;;;;;;;;;;;20.41;65.51;96780.28;4184530;28;5794;-73
2022/10/15 11:31:35;;;;;;;;;;;;;;;20.42;65.70;96764.97;4198944;28;5869;-72
2022/10/15 11:34:17;;;;;;;;;;;;;;;20.42;65.10;96764.97;4195080;28;5841;-71
2022/10/15 11:36:36;;;;;;;;;;;;;;;20.42;65.27;96764.97;4190978;28;5674;-71
2022/10/15 11:38:45;;;;;;;;;;;;;;;20.43;65.21;96761.25;4187061;28;5840;-70
2022/10/15 11:40:58;;;;;;;;;;;;;;;20.44;65.28;96762.88;4200127;28;5864;-71
2022/10/15 11:43:07;;;;;;;;;;;;;;;20.46;64.83;96756.16;4199997;28;5697;-72
2022/10/15 11:45:27;;;;;;;;;;;;;;;20.47;64.75;96752.41;4200141;28;5710;-71
2022/10/15 11:47:42;;;;;;;;;;;;;;;20.51;64.62;96758.09;4199942;28;5761;-72
2022/10/15 11:49:55;;;;;;;;;;;;;;;20.50;64.56;96751.09;4199455;28;5689;-72
2022/10/15 11:52:20;;;;;;;;;;;;;;;20.52;64.38;96743.59;4200110;28;5817;-72
2022/10/15 11:54:30;;;;;;;;;;;;;;;20.51;64.43;96742.78;4194727;28;5682;-72
2022/10/15 11:56:36;;;;;;;;;;;;;;;20.51;64.18;96748.16;4200032;28;7218;-72
2022/10/15 11:58:45;;;;;;;;;;;;;;;20.51;64.28;96742.00;4197167;28;5734;-71
2022/10/15 12:00:50;;;;;;;;;;;;;;;20.52;64.22;96738.22;4190513;28;5713;-71
2022/10/15 12:02:54;;;;;;;;;;;;;;;20.51;64.05;96739.31;4197316;28;5948;-71
2022/10/15 12:05:01;;;;;;;;;;;;;;;20.50;64.30;96729.59;4199676;28;5766;-71
2022/10/15 12:07:06;;;;;;;;;;;;;;;20.52;64.23;96722.13;4199577;28;6375;-72
2022/10/15 12:09:15;;;;;;;;;;;;;;;20.55;63.97;96721.59;4199755;28;5702;-70
2022/10/15 12:11:29;;;;;;;;;;;;;;;20.52;63.68;96722.94;4199764;28;5698;-70
2022/10/15 12:13:41;;;;;;;;;;;;;;;20.54;63.79;96719.97;4199654;28;5797;-71
2022/10/15 12:16:08;;;;;;;;;;;;;;;20.57;63.44;96711.41;4199826;28;5702;-72
2022/10/15 12:18:15;;;;;;;;;;;;;;;20.59;63.73;96710.06;4199359;28;5694;-72
2022/10/15 12:20:20;;;;;;;;;;;;;;;20.62;63.70;96722.19;4199512;28;5720;-72
2022/10/15 12:22:36;;;;;;;;;;;;;;;20.60;63.40;96706.31;4199834;28;5853;-71
2022/10/15 12:24:55;;;;;;;;;;;;;;;20.60;62.94;96719.75;4199705;28;5677;-72
2022/10/15 12:27:15;;;;;;;;;;;;;;;20.62;63.03;96706.06;4199790;28;5698;-72
2022/10/15 12:29:21;;;;;;;;;;;;;;;20.62;62.85;96706.06;4193138;28;5854;-72
2022/10/15 12:31:42;;;;;;;;;;;;;;;20.62;63.15;96712.25;4199665;28;5678;-72
2022/10/15 12:33:49;;;;;;;;;;;;;;;20.64;63.10;96709.31;4199689;28;5690;-71
2022/10/15 12:35:55;;;;;;;;;;;;;;;20.63;62.93;96692.38;4202686;28;5725;-72
2022/10/15 12:38:11;;;;;;;;;;;;;;;20.64;62.68;96693.19;4202747;28;5780;-72
2022/10/15 12:40:26;;;;;;;;;;;;;;;20.65;62.58;96689.44;4195827;28;5789;-71
2022/10/15 12:42:33;;;;;;;;;;;;;;;20.68;62.41;96699.66;4202734;28;6501;-72
2022/10/15 12:44:36;;;;;;;;;;;;;;;20.67;62.46;96683.81;4202800;28;5682;-72
2022/10/15 12:46:41;;;;;;;;;;;;;;;20.67;62.35;96675.75;4202651;28;5814;-72
2022/10/15 12:48:45;;;;;;;;;;;;;;;20.68;61.87;96669.31;4201744;28;5684;-71
2022/10/15 12:50:48;;;;;;;;;;;;;;;20.68;61.91;96661.25;4202313;28;5837;-71
2022/10/15 12:52:56;;;;;;;;;;;;;;;20.70;61.77;96665.28;4202425;28;5705;-71
2022/10/15 12:55:20;;;;;;;;;;;;;;;20.72;62.08;96667.69;4202462;28;5796;-71
2022/10/15 12:57:51;;;;;;;;;;;;;;;20.74;61.97;96668.28;4202281;28;5864;-71
2022/10/15 12:59:57;;;;;;;;;;;;;;;20.76;61.88;96663.44;4202482;28;5697;-72
2022/10/15 13:02:01;;;;;;;;;;;;;;;20.76;61.77;96658.88;4194056;28;5856;-72
2022/10/15 13:04:04;;;;;;;;;;;;;;;20.77;61.91;96659.69;4202301;28;5762;-72
2022/10/15 13:06:25;;;;;;;;;;;;;;;20.77;61.53;96657.00;4202124;28;5698;-72
2022/10/15 13:08:30;;;;;;;;;;;;;;;20.78;61.48;96656.72;4202246;28;5840;-72
2022/10/15 13:10:36;;;;;;;;;;;;;;;20.76;61.44;96653.50;4202201;28;5682;-72
2022/10/15 13:12:39;;;;;;;;;;;;;;;20.82;61.56;96660.50;4202174;28;5780;-69
2022/10/15 13:14:51;;;;;;;;;;;;;;;20.83;61.22;96648.69;4202144;28;5768;-68
2022/10/15 13:16:55;;;;;;;;;;;;;;;20.84;60.96;96646.84;4202031;28;5811;-68
2022/10/15 13:18:59;;;;;;;;;;;;;;;20.84;61.36;96649.53;4201724;28;5769;-68
2022/10/15 13:21:02;;;;;;;;;;;;;;;20.84;61.21;96639.59;4201906;28;5690;-68
2022/10/15 13:23:11;;;;;;;;;;;;;;;20.83;61.17;96640.63;4194026;28;5913;-68
2022/10/15 13:25:31;;;;;;;;;;;;;;;20.87;60.81;96643.63;4202067;28;5773;-69
2022/10/15 13:27:36;;;;;;;;;;;;;;;20.87;60.97;96644.44;4201855;28;5710;-69
2022/10/15 13:29:39;;;;;;;;;;;;;;;20.90;60.81;96640.41;4201853;28;5705;-67
2022/10/15 13:31:43;;;;;;;;;;;;;;;20.91;60.61;96644.69;4189989;28;5829;-68
2022/10/15 13:33:50;;;;;;;;;;;;;;;20.92;60.93;96635.56;4195686;28;5905;-69
2022/10/15 13:35:54;;;;;;;;;;;;;;;20.94;60.53;96639.59;4201880;28;5789;-69
2022/10/15 13:37:59;;;;;;;;;;;;;;;20.97;60.64;96638.28;4201826;28;5716;-68
2022/10/15 13:40:03;;;;;;;;;;;;;;;20.98;60.59;96633.72;4198167;28;7713;-68
2022/10/15 13:42:18;;;;;;;;;;;;;;;20.99;60.68;96643.41;4190560;28;5853;-68
2022/10/15 13:44:22;;;;;;;;;;;;;;;21.01;60.28;96643.94;4189459;28;5703;-68
2022/10/15 13:46:26;;;;;;;;;;;;;;;21.01;60.57;96639.38;4195601;28;5768;-70
2022/10/15 13:48:31;;;;;;;;;;;;;;;21.03;60.58;96641.78;4198331;28;5765;-68
2022/10/15 13:50:36;;;;;;;;;;;;;;;21.06;60.33;96635.88;4193030;28;5857;-68
2022/10/15 13:52:42;;;;;;;;;;;;;;;21.05;60.18;96629.69;4194581;28;5762;-69
2022/10/15 13:54:46;;;;;;;;;;;;;;;21.07;60.06;96632.16;4200415;28;5706;-69
2022/10/15 13:56:54;;;;;;;;;;;;;;;21.07;60.50;96641.03;4200468;28;6988;-69
2022/10/15 13:58:59;;;;;;;;;;;;;;;21.06;60.21;96635.88;4183829;28;5841;-69
2022/10/15 14:01:08;;;;;;;;;;;;;;;21.03;60.37;96639.09;4196353;28;7263;-69
2022/10/15 14:03:18;;;;;;;;;;;;;;;21.05;60.59;96639.66;4197878;28;5755;-68
2022/10/15 14:05:24;;;;;;;;;;;;;;;21.05;60.32;96645.00;4200733;28;5661;-69
2022/10/15 14:07:26;;;;;;;;;;;;;;;21.05;60.32;96645.00;4192084;28;5770;-69
2022/10/15 14:09:33;;;;;;;;;;;;;;;21.07;60.06;96632.94;4188344;28;5706;-68
2022/10/15 14:11:38;;;;;;;;;;;;;;;21.08;60.24;96629.19;4193717;28;5781;-68
2022/10/15 14:13:45;;;;;;;;;;;;;;;21.10;60.29;96629.72;4195497;28;5800;-68
2022/10/15 14:15:57;;;;;;;;;;;;;;;21.10;60.03;96626.25;4199316;28;5758;-68
2022/10/15 14:18:00;;;;;;;;;;;;;;;21.12;60.52;96632.16;4194198;28;5720;-68
2022/10/15 14:20:06;;;;;;;;;;;;;;;21.11;60.06;96627.84;4198347;28;5693;-68
2022/10/15 14:22:30;;;;;;;;;;;;;;;21.13;60.27;96631.88;4196537;28;5967;-69
2022/10/15 14:24:38;;;;;;;;;;;;;;;21.14;60.14;96627.31;4197563;28;5682;-69
2022/10/15 14:26:41;;;;;;;;;;;;;;;21.15;60.46;96631.63;4192614;28;5863;-69
2022/10/15 14:28:50;;;;;;;;;;;;;;;21.14;59.94;96624.63;4196395;28;5821;-69
2022/10/15 14:30:55;;;;;;;;;;;;;;;21.16;60.09;96617.09;4190522;28;5715;-69
2022/10/15 14:32:57;;;;;;;;;;;;;;;21.16;60.20;96627.84;4202287;28;5681;-69
2022/10/15 14:35:03;;;;;;;;;;;;;;;21.14;60.11;96620.06;4190629;28;5801;-67
2022/10/15 14:37:44;;;;;;;;;;;;;;;21.15;60.14;96632.41;4193266;28;5849;-67
2022/10/15 14:39:49;;;;;;;;;;;;;;;21.16;59.94;96625.16;4193366;28;6611;-69
2022/10/15 14:41:56;;;;;;;;;;;;;;;21.15;59.66;96623.56;4191096;28;5817;-69
2022/10/15 14:44:06;;;;;;;;;;;;;;;21.15;59.46;96610.13;4190709;28;5776;-69
2022/10/15 14:46:16;;;;;;;;;;;;;;;21.16;59.80;96617.09;4187794;28;5697;-69
2022/10/15 14:48:23;;;;;;;;;;;;;;;21.16;59.57;96617.09;4197422;28;5800;-68
2022/10/15 14:50:30;;;;;;;;;;;;;;;21.17;59.60;96619.53;4197139;28;5652;-68
2022/10/15 14:52:37;;;;;;;;;;;;;;;21.18;59.43;96618.47;4194469;28;5697;-68
2022/10/15 14:54:42;;;;;;;;;;;;;;;21.18;59.53;96617.66;4189389;28;5925;-68
2022/10/15 14:56:49;;;;;;;;;;;;;;;21.16;59.54;96611.72;4190796;28;5852;-68
2022/10/15 14:58:56;;;;;;;;;;;;;;;21.17;59.37;96621.41;4198801;28;5793;-68
2022/10/15 15:01:01;;;;;;;;;;;;;;;21.17;59.09;96621.41;4193441;28;5808;-68
2022/10/15 15:03:06;;;;;;;;;;;;;;;21.19;59.01;96624.66;4186834;28;5833;-68
2022/10/15 15:05:20;;;;;;;;;;;;;;;21.19;59.18;96621.97;4193510;28;5693;-65
2022/10/15 15:07:23;;;;;;;;;;;;;;;21.20;58.72;96626.28;4192995;28;5848;-72
2022/10/15 15:09:26;;;;;;;;;;;;;;;21.19;58.69;96620.09;4194375;28;5810;-73
2022/10/15 15:11:29;;;;;;;;;;;;;;;21.19;59.09;96621.97;4198584;28;5856;-73
2022/10/15 15:13:40;;;;;;;;;;;;;;;21.19;58.97;96614.72;4187557;28;5718;-66
2022/10/15 15:15:43;;;;;;;;;;;;;;;21.20;58.42;96613.63;4192490;28;5876;-65
2022/10/15 15:17:47;;;;;;;;;;;;;;;21.20;58.69;96610.16;4196136;28;5799;-70
2022/10/15 15:19:51;;;;;;;;;;;;;;;21.20;58.54;96612.84;4198891;28;5761;-69
2022/10/15 15:21:55;;;;;;;;;;;;;;;21.20;58.54;96610.16;4199231;28;5697;-68
2022/10/15 15:23:58;;;;;;;;;;;;;;;21.18;58.63;96613.09;4197281;28;5689;-70
2022/10/15 15:26:01;;;;;;;;;;;;;;;21.19;58.66;96619.28;4196514;28;5854;-69
2022/10/15 15:28:06;;;;;;;;;;;;;;;21.18;58.64;96617.66;4189063;28;5945;-67
2022/10/15 15:30:17;;;;;;;;;;;;;;;21.17;58.08;96622.22;4188509;28;5798;-67
2022/10/15 15:32:21;;;;;;;;;;;;;;;21.17;58.42;96619.53;4195423;28;5995;-66
2022/10/15 15:34:25;;;;;;;;;;;;;;;21.18;58.41;96623.03;4193108;28;5801;-66
2022/10/15 15:36:28;;;;;;;;;;;;;;;21.16;58.19;96611.72;4198826;28;5668;-66
2022/10/15 15:38:31;;;;;;;;;;;;;;;21.16;58.30;96609.84;4191182;28;5808;-67
2022/10/15 15:40:35;;;;;;;;;;;;;;;21.14;58.17;96616.56;4192405;28;6563;-67
2022/10/15 15:42:38;;;;;;;;;;;;;;;21.13;58.24;96621.13;4186435;28;5920;-67
2022/10/15 15:44:43;;;;;;;;;;;;;;;21.14;58.14;96621.94;4193847;28;5895;-67
2022/10/15 15:46:50;;;;;;;;;;;;;;;21.12;58.21;96618.72;4187099;28;8113;-66
2022/10/15 15:48:53;;;;;;;;;;;;;;;21.12;57.82;96618.72;4189476;28;5889;-67
2022/10/15 15:51:01;;;;;;;;;;;;;;;21.11;57.89;96617.09;4194338;28;5718;-67
2022/10/15 15:53:04;;;;;;;;;;;;;;;21.11;58.25;96622.47;4188591;28;5772;-63
2022/10/15 15:55:08;;;;;;;;;;;;;;;21.11;57.94;96615.22;4190335;28;5865;-63
2022/10/15 15:57:11;;;;;;;;;;;;;;;21.11;58.27;96622.47;4187342;28;5853;-63
2022/10/15 15:59:15;;;;;;;;;;;;;;;21.09;58.04;96619.25;4198921;28;5677;-63
2022/10/15 16:01:19;;;;;;;;;;;;;;;21.04;58.34;96622.72;4198311;28;5693;-63
2022/10/15 16:03:23;;;;;;;;;;;;;;;21.03;58.38;96622.97;4197013;28;5698;-63
2022/10/15 16:05:26;;;;;;;;;;;;;;;21.01;58.11;96623.25;4186180;28;5773;-63
2022/10/15 16:07:28;;;;;;;;;;;;;;;20.99;58.62;96633.44;4187716;28;5922;-62
2022/10/15 16:09:32;;;;;;;;;;;;;;;20.98;58.18;96622.97;4190722;28;5948;-63
2022/10/15 16:11:37;;;;;;;;;;;;;;;20.94;58.19;96634.22;4199686;28;5708;-64
2022/10/15 16:13:41;;;;;;;;;;;;;;;20.96;58.60;96641.25;4194461;28;5921;-63
2022/10/15 16:15:44;;;;;;;;;;;;;;;20.93;58.34;96634.50;4196655;28;5881;-63
2022/10/15 16:17:47;;;;;;;;;;;;;;;20.92;58.16;96636.38;4191760;28;5760;-63
2022/10/15 16:19:52;;;;;;;;;;;;;;;20.92;58.60;96643.63;4187880;28;5798;-64
2022/10/15 16:21:54;;;;;;;;;;;;;;;20.90;58.27;96638.53;4191440;28;5816;-70
2022/10/15 16:23:57;;;;;;;;;;;;;;;20.88;58.31;96646.03;4202649;28;5718;-72
2022/10/15 16:26:00;;;;;;;;;;;;;;;20.87;58.61;96639.06;4204289;28;5772;-72
2022/10/15 16:28:03;;;;;;;;;;;;;;;20.87;58.69;96640.94;4206185;28;5796;-72
2022/10/15 16:30:07;;;;;;;;;;;;;;;20.86;58.61;96648.19;4204026;28;5740;-71
2022/10/15 16:32:09;;;;;;;;;;;;;;;20.84;58.47;96636.91;4203544;28;5885;-72
2022/10/15 16:34:12;;;;;;;;;;;;;;;20.83;58.44;96640.63;4202931;28;7699;-71
2022/10/15 16:36:17;;;;;;;;;;;;;;;20.82;58.82;96641.69;4192349;28;5682;-71
2022/10/15 16:38:20;;;;;;;;;;;;;;;20.80;58.64;96648.41;4197235;28;5693;-72
2022/10/15 16:40:22;;;;;;;;;;;;;;;20.79;58.64;96650.28;4203212;28;5788;-72
2022/10/15 16:42:25;;;;;;;;;;;;;;;20.79;58.46;96649.47;4191347;28;5714;-70
2022/10/15 16:44:28;;;;;;;;;;;;;;;20.79;58.33;96647.59;4182667;28;5933;-69
2022/10/15 16:46:30;;;;;;;;;;;;;;;20.78;58.88;96646.00;4196044;28;5695;-70
2022/10/15 16:48:34;;;;;;;;;;;;;;;20.80;58.81;96654.59;4185753;28;6595;-69
2022/10/15 16:50:37;;;;;;;;;;;;;;;20.81;58.46;96658.88;4191027;28;5752;-67
2022/10/15 16:52:41;;;;;;;;;;;;;;;20.83;58.51;96648.69;4188119;28;5710;-68
2022/10/15 16:54:44;;;;;;;;;;;;;;;20.84;58.83;96660.28;4200586;28;5083;-68
2022/10/15 16:56:46;;;;;;;;;;;;;;;20.84;58.41;96661.06;4177667;28;5810;-69
2022/10/15 16:58:54;;;;;;;;;;;;;;;20.84;58.43;96669.13;4194048;28;5844;-68
2022/10/15 17:01:00;;;;;;;;;;;;;;;20.84;58.78;96666.44;4197374;28;5856;-68
2022/10/15 17:03:03;;;;;;;;;;;;;;;20.84;58.71;96671.03;4188412;28;5786;-67
2022/10/15 17:05:08;;;;;;;;;;;;;;;20.85;58.79;96676.13;4188888;28;5774;-69
2022/10/15 17:07:10;;;;;;;;;;;;;;;20.84;58.75;96668.31;4202431;28;5698;-71
2022/10/15 17:09:15;;;;;;;;;;;;;;;20.85;58.78;96672.63;4202650;28;5701;-73
2022/10/15 17:11:19;;;;;;;;;;;;;;;20.84;58.28;96660.28;4197538;28;5950;-73
2022/10/15 17:13:22;;;;;;;;;;;;;;;20.83;58.52;96670.19;4180281;28;7815;-72
2022/10/15 17:15:25;;;;;;;;;;;;;;;20.84;58.36;96671.03;4194746;28;5788;-72
2022/10/15 17:17:28;;;;;;;;;;;;;;;20.83;58.51;96674.75;4201834;28;5694;-71
2022/10/15 17:19:30;;;;;;;;;;;;;;;20.84;58.31;96673.69;4192291;28;5705;-73
2022/10/15 17:21:36;;;;;;;;;;;;;;;20.83;58.26;96672.88;4199285;28;5841;-70
2022/10/15 17:23:39;;;;;;;;;;;;;;;20.82;58.22;96667.75;4194011;28;5713;-72
2022/10/15 17:25:43;;;;;;;;;;;;;;;20.83;58.65;96672.06;4188750;28;5880;-67
2022/10/15 17:27:46;;;;;;;;;;;;;;;20.82;58.42;96668.56;4192896;28;5682;-68
2022/10/15 17:29:49;;;;;;;;;;;;;;;20.83;58.50;96685.50;4189959;28;5801;-70
2022/10/15 17:31:52;;;;;;;;;;;;;;;20.82;58.44;96679.31;4201250;28;5678;-66
2022/10/15 17:33:56;;;;;;;;;;;;;;;20.80;58.43;96689.50;4198911;28;6499;-70
2022/10/15 17:36:02;;;;;;;;;;;;;;;20.80;58.15;96691.41;4195861;28;5701;-65
2022/10/15 17:38:04;;;;;;;;;;;;;;;20.78;58.13;96690.84;4193402;28;5849;-69
2022/10/15 17:40:08;;;;;;;;;;;;;;;20.77;58.07;96695.41;4187844;28;6000;-68
2022/10/15 17:42:14;;;;;;;;;;;;;;;20.75;58.04;96694.88;4194377;28;7776;-72
2022/10/15 17:44:20;;;;;;;;;;;;;;;20.75;58.20;96691.38;4188847;28;5867;-69
2022/10/15 17:46:25;;;;;;;;;;;;;;;20.73;58.16;96688.97;4191513;28;5840;-77
2022/10/15 17:48:28;;;;;;;;;;;;;;;20.70;58.48;96689.44;4190070;28;5833;-65
2022/10/15 17:50:31;;;;;;;;;;;;;;;20.72;58.11;96692.69;4196317;28;5697;-65
2022/10/15 17:52:34;;;;;;;;;;;;;;;20.71;58.25;96693.75;4197469;28;5690;-65
2022/10/15 17:54:37;;;;;;;;;;;;;;;20.72;58.37;96705.31;4197254;28;5685;-66
2022/10/15 17:56:40;;;;;;;;;;;;;;;20.71;58.27;96707.19;4207047;28;5865;-69
2022/10/15 17:58:44;;;;;;;;;;;;;;;20.72;58.04;96716.06;4187993;28;5154;-69
2022/10/15 18:00:52;;;;;;;;;;;;;;;20.72;58.10;96718.75;4189223;28;5735;-70
2022/10/15 18:02:56;;;;;;;;;;;;;;;20.70;58.24;96727.06;4187715;28;5834;-69
2022/10/15 18:04:59;;;;;;;;;;;;;;;20.70;57.88;96727.06;4192145;28;5809;-69
2022/10/15 18:07:02;;;;;;;;;;;;;;;20.68;57.82;96729.19;4193760;28;5830;-68
2022/10/15 18:09:05;;;;;;;;;;;;;;;20.68;58.30;96723.81;4191449;28;5689;-68
2022/10/15 18:11:08;;;;;;;;;;;;;;;20.67;57.88;96724.91;4187902;28;5690;-68
2022/10/15 18:13:11;;;;;;;;;;;;;;;20.67;58.26;96716.03;4195629;28;6008;-67
2022/10/15 18:15:15;;;;;;;;;;;;;;;20.66;57.87;96731.34;4196157;28;5685;-69
2022/10/15 18:17:18;;;;;;;;;;;;;;;20.66;58.01;96736.72;4194138;28;5805;-71
2022/10/15 18:19:21;;;;;;;;;;;;;;;20.66;57.67;96736.72;4195342;28;5788;-69
2022/10/15 18:21:26;;;;;;;;;;;;;;;20.65;57.83;96737.78;4193865;28;5837;-69
2022/10/15 18:23:31;;;;;;;;;;;;;;;20.65;58.09;96737.78;4194387;28;5694;-68
2022/10/15 18:25:39;;;;;;;;;;;;;;;20.64;57.93;96734.28;4180863;28;5123;-69
2022/10/15 18:27:42;;;;;;;;;;;;;;;20.66;57.77;96741.28;4191639;28;5695;-67
2022/10/15 18:29:45;;;;;;;;;;;;;;;20.64;57.71;96736.97;4189361;28;6010;-70
2022/10/15 18:31:49;;;;;;;;;;;;;;;20.65;57.81;96743.16;4194409;28;5858;-71
2022/10/15 18:33:59;;;;;;;;;;;;;;;20.66;57.69;96730.53;4197374;28;5706;-70
2022/10/15 18:36:06;;;;;;;;;;;;;;;20.63;58.09;96734.56;4196351;28;5852;-69
2022/10/15 18:38:09;;;;;;;;;;;;;;;20.64;57.76;96731.59;4192206;28;5690;-68
2022/10/15 18:40:12;;;;;;;;;;;;;;;20.63;57.59;96731.88;4193898;28;5152;-69
2022/10/15 18:42:15;;;;;;;;;;;;;;;20.63;57.58;96739.91;4190922;28;5865;-69
2022/10/15 18:44:20;;;;;;;;;;;;;;;20.63;57.79;96734.56;4189558;28;5702;-70
2022/10/15 18:46:26;;;;;;;;;;;;;;;20.62;57.77;96743.69;4187757;28;5805;-68
2022/10/15 18:48:30;;;;;;;;;;;;;;;20.61;57.80;96737.50;4186784;28;5835;-66
2022/10/15 18:50:35;;;;;;;;;;;;;;;20.61;57.64;96748.25;4181703;28;5818;-69
2022/10/15 18:52:38;;;;;;;;;;;;;;;20.61;57.58;96744.72;4189847;28;5785;-68
2022/10/15 18:54:42;;;;;;;;;;;;;;;20.62;57.77;96743.69;4190967;28;5922;-70
2022/10/15 18:56:45;;;;;;;;;;;;;;;20.60;57.75;96740.41;4188201;28;5694;-69
2022/10/15 18:58:48;;;;;;;;;;;;;;;20.60;57.85;96741.22;4192627;28;5897;-69
2022/10/15 19:00:51;;;;;;;;;;;;;;;20.60;57.88;96741.22;4184265;28;5709;-69
2022/10/15 19:02:55;;;;;;;;;;;;;;;20.60;57.37;96745.78;4180551;28;5846;-67
2022/10/15 19:04:59;;;;;;;;;;;;;;;20.59;57.68;96731.56;4178557;28;5714;-73
2022/10/15 19:07:03;;;;;;;;;;;;;;;20.61;57.57;96736.66;4184918;28;5711;-73
2022/10/15 19:09:08;;;;;;;;;;;;;;;20.61;57.59;96739.34;4188578;28;6373;-73